createdAt,value
2018-12-27T09:33:59.980Z,17.27
2018-12-27T09:36:50.811Z,18.37
2018-12-27T09:39:41.131Z,20.03
2018-12-27T09:42:31.451Z,18.70
2018-12-27T09:45:21.939Z,18.20
2018-12-27T09:48:12.211Z,17.70
2018-12-27T09:51:02.538Z,15.50
2018-12-27T09:53:52.564Z,15.73
2018-12-27T09:56:43.416Z,15.97
2018-12-27T09:59:34.889Z,17.07
2018-12-27T10:02:25.218Z,16.60
2018-12-27T10:05:15.567Z,17.03
2018-12-27T10:08:05.966Z,16.17
2018-12-27T10:10:56.338Z,16.40
2018-12-27T10:13:46.728Z,16.03
2018-12-27T10:16:36.871Z,16.97
2018-12-27T10:19:27.311Z,16.10
2018-12-27T10:22:17.346Z,15.63
2018-12-27T10:25:07.887Z,18.47
2018-12-27T10:27:58.239Z,17.20
2018-12-27T10:30:48.618Z,18.30
2018-12-27T10:33:38.563Z,14.83
2018-12-27T10:36:28.835Z,15.50
2018-12-27T10:39:19.035Z,16.07
2018-12-27T10:42:09.612Z,15.90
2018-12-27T10:45:00.150Z,16.27
2018-12-27T10:47:50.219Z,16.80
2018-12-27T10:50:40.522Z,16.10
2018-12-27T10:53:30.956Z,15.23
2018-12-27T10:56:21.063Z,14.27
2018-12-27T10:59:11.366Z,13.87
2018-12-27T11:02:01.500Z,14.90
2018-12-27T11:04:52.074Z,16.47
2018-12-27T11:07:42.559Z,14.53
2018-12-27T11:10:32.843Z,15.23
2018-12-27T11:13:23.178Z,14.73
2018-12-27T11:16:13.561Z,15.07
2018-12-27T11:19:03.939Z,15.50
2018-12-27T11:21:54.258Z,14.70
2018-12-27T11:24:44.579Z,14.87
2018-12-27T11:27:35.198Z,14.83
2018-12-27T11:30:25.611Z,14.63
2018-12-27T11:33:15.965Z,14.30
2018-12-27T11:36:06.406Z,15.57
2018-12-27T11:38:56.874Z,16.23
2018-12-27T11:41:47.470Z,17.03
2018-12-27T11:44:37.751Z,16.80
2018-12-27T11:47:28.379Z,15.73
2018-12-27T11:50:18.630Z,14.60
2018-12-27T11:53:08.923Z,15.13
2018-12-27T11:56:00.011Z,18.87
2018-12-27T11:58:50.877Z,17.17
2018-12-27T12:01:41.283Z,17.37
2018-12-27T12:04:31.628Z,15.07
2018-12-27T12:07:21.710Z,20.77
2018-12-27T12:10:11.819Z,17.47
2018-12-27T12:13:02.106Z,15.77
2018-12-27T12:15:52.618Z,16.27
2018-12-27T12:18:42.962Z,16.20
2018-12-27T12:21:33.283Z,16.70
2018-12-27T12:24:23.583Z,16.77
2018-12-27T12:27:13.707Z,15.97
2018-12-27T12:30:04.830Z,16.57
2018-12-27T12:32:54.953Z,16.37
2018-12-27T12:35:45.895Z,15.17
2018-12-27T12:38:36.799Z,19.63
2018-12-27T12:41:27.187Z,18.20
2018-12-27T12:44:18.294Z,16.40
2018-12-27T12:47:08.355Z,16.17
2018-12-27T12:49:58.825Z,17.93
2018-12-27T12:52:49.674Z,17.30
2018-12-27T12:55:40.508Z,17.87
2018-12-27T12:58:30.779Z,17.63
2018-12-27T13:01:20.859Z,18.00
2018-12-27T13:04:11.195Z,17.27
2018-12-27T13:07:01.246Z,17.33
2018-12-27T13:09:51.716Z,18.30
2018-12-27T13:12:41.975Z,17.93
2018-12-27T13:15:32.507Z,17.47
2018-12-27T13:18:23.066Z,17.00
2018-12-27T13:21:13.671Z,17.73
2018-12-27T13:24:03.731Z,17.27
2018-12-27T13:26:54.134Z,17.07
2018-12-27T13:29:44.447Z,16.87
2018-12-27T13:32:34.600Z,17.13
2018-12-27T13:35:24.927Z,16.53
2018-12-27T13:38:15.259Z,17.90
2018-12-27T13:41:05.908Z,16.30
2018-12-27T13:43:56.406Z,16.43
2018-12-27T13:46:46.546Z,15.73
2018-12-27T13:49:36.634Z,17.53
2018-12-27T13:52:26.738Z,16.67
2018-12-27T13:55:17.114Z,19.00
2018-12-27T13:58:07.581Z,18.03
2018-12-27T14:00:58.127Z,19.07
2018-12-27T14:03:49.001Z,17.07
2018-12-27T14:08:46.771Z,20.07
2018-12-27T14:11:37.627Z,19.43
2018-12-27T14:14:27.803Z,21.40
2018-12-27T14:17:18.295Z,22.23
2018-12-27T14:20:08.979Z,18.67
2018-12-27T14:22:59.883Z,24.43
2018-12-27T14:25:50.123Z,19.70
2018-12-27T14:28:40.370Z,19.83
2018-12-27T14:31:30.766Z,18.47
2018-12-27T14:34:21.107Z,18.13
2018-12-27T14:37:11.531Z,18.37
2018-12-27T14:40:01.578Z,21.33
2018-12-27T14:42:51.802Z,18.47
2018-12-27T14:45:41.811Z,17.60
2018-12-27T14:48:32.010Z,20.00
2018-12-27T14:51:23.042Z,21.27
2018-12-27T14:54:13.365Z,21.20
2018-12-27T14:57:03.748Z,19.80
2018-12-27T14:59:54.024Z,18.80
2018-12-27T15:02:44.090Z,17.77
2018-12-27T15:05:34.378Z,17.47
2018-12-27T15:08:24.714Z,18.10
2018-12-27T15:11:15.099Z,17.33
2018-12-27T15:14:05.434Z,19.17
2018-12-27T15:16:55.583Z,22.63
2018-12-27T15:19:46.071Z,20.37
2018-12-27T15:22:36.590Z,18.60
2018-12-27T15:25:26.967Z,19.10
2018-12-27T15:28:17.338Z,16.83
2018-12-27T15:31:07.809Z,17.27
2018-12-27T15:33:58.112Z,17.00
2018-12-27T15:36:54.156Z,18.13
2018-12-27T15:39:39.694Z,17.60
2018-12-27T15:42:29.858Z,17.90
2018-12-27T15:45:20.210Z,17.10
2018-12-27T15:48:10.530Z,18.23
2018-12-27T15:51:01.633Z,16.63
2018-12-27T15:53:52.171Z,17.90
2018-12-27T15:56:42.496Z,17.17
2018-12-27T15:59:32.540Z,18.83
2018-12-27T16:02:22.872Z,19.07
2018-12-27T16:05:13.308Z,17.50
2018-12-27T16:08:03.404Z,18.77
2018-12-27T16:10:53.561Z,16.47
2018-12-27T16:13:43.623Z,16.27
2018-12-27T16:16:34.186Z,15.57
2018-12-27T16:19:24.575Z,18.33
2018-12-27T16:22:14.819Z,16.13
2018-12-27T16:25:05.047Z,17.03
2018-12-27T16:27:55.392Z,17.63
2018-12-27T16:30:45.470Z,17.43
2018-12-27T16:33:35.848Z,17.43
2018-12-27T16:36:26.239Z,17.57
2018-12-27T16:39:16.639Z,18.53
2018-12-27T16:42:06.734Z,17.67
2018-12-27T16:44:57.056Z,20.77
2018-12-27T16:47:47.295Z,20.30
2018-12-27T16:50:37.846Z,19.67
2018-12-27T16:53:27.942Z,20.77
2018-12-27T16:56:18.006Z,21.23
2018-12-27T16:59:08.177Z,22.20
2018-12-27T17:01:58.566Z,21.73
2018-12-27T17:04:48.979Z,21.53
2018-12-27T17:07:39.373Z,20.40
2018-12-27T17:10:29.787Z,28.17
2018-12-27T17:13:20.188Z,27.93
2018-12-27T17:16:10.796Z,23.10
2018-12-27T17:19:02.281Z,23.23
2018-12-27T17:21:52.638Z,21.23
2018-12-27T17:24:42.753Z,21.47
2018-12-27T17:27:33.359Z,19.83
2018-12-27T17:30:23.723Z,21.20
2018-12-27T17:33:14.308Z,23.50
2018-12-27T17:36:04.627Z,21.87
2018-12-27T17:38:55.543Z,22.57
2018-12-27T17:41:45.920Z,23.43
2018-12-27T17:44:36.807Z,22.53
2018-12-27T17:47:27.216Z,23.10
2018-12-27T17:50:17.555Z,22.13
2018-12-27T17:53:08.022Z,23.83
2018-12-27T17:55:58.488Z,25.07
2018-12-27T17:58:49.142Z,22.93
2018-12-27T18:01:39.427Z,23.87
2018-12-27T18:04:29.700Z,24.37
2018-12-27T18:07:19.994Z,26.03
2018-12-27T18:10:10.400Z,23.77
2018-12-27T18:13:00.520Z,23.87
2018-12-27T18:15:51.046Z,26.30
2018-12-27T18:18:41.102Z,24.80
2018-12-27T18:21:31.862Z,25.63
2018-12-27T18:24:22.318Z,23.17
2018-12-27T18:27:12.398Z,22.17
2018-12-27T18:30:02.755Z,24.77
2018-12-27T18:32:53.925Z,25.33
2018-12-27T18:35:44.108Z,22.03
2018-12-27T18:38:34.214Z,23.57
2018-12-27T18:41:25.171Z,24.27
2018-12-27T18:44:15.251Z,24.97
2018-12-27T18:47:05.574Z,24.77
2018-12-27T18:49:55.649Z,24.83
2018-12-27T18:52:46.235Z,25.57
2018-12-27T18:55:36.463Z,24.47
2018-12-27T18:58:26.834Z,25.33
2018-12-27T19:01:17.187Z,24.23
2018-12-27T19:04:07.879Z,26.13
2018-12-27T19:06:58.787Z,25.93
2018-12-27T19:09:48.904Z,25.20
2018-12-27T19:13:16.154Z,24.50
2018-12-27T19:16:06.487Z,25.07
2018-12-27T19:18:56.644Z,24.53
2018-12-27T19:22:01.167Z,27.40
2018-12-27T19:24:51.730Z,24.80
2018-12-27T19:27:42.069Z,25.40
2018-12-27T19:30:32.250Z,26.27
2018-12-27T19:33:22.455Z,25.73
2018-12-27T19:36:12.579Z,24.63
2018-12-27T19:39:02.658Z,27.43
2018-12-27T19:41:52.759Z,26.40
2018-12-27T19:44:42.838Z,27.87
2018-12-27T19:47:32.963Z,26.70
2018-12-27T19:50:24.211Z,25.23
2018-12-27T19:53:14.822Z,28.63
2018-12-27T19:56:05.210Z,26.27
2018-12-27T19:58:55.663Z,27.20
2018-12-27T20:01:46.029Z,27.67
2018-12-27T20:04:36.275Z,27.80
2018-12-27T20:07:26.591Z,26.63
2018-12-27T20:10:17.423Z,27.37
2018-12-27T20:13:07.798Z,25.83
2018-12-27T20:15:57.906Z,25.20
2018-12-27T20:18:48.059Z,25.00
2018-12-27T20:21:38.163Z,24.63
2018-12-27T20:24:28.507Z,24.10
2018-12-27T20:27:18.734Z,24.17
2018-12-27T20:30:09.487Z,24.57
2018-12-27T20:33:00.535Z,29.27
2018-12-27T20:35:51.262Z,25.47
2018-12-27T20:38:41.588Z,23.87
2018-12-27T20:41:31.898Z,24.63
2018-12-27T20:44:22.319Z,31.03
2018-12-27T20:47:12.727Z,26.20
2018-12-27T20:50:02.775Z,26.30
2018-12-27T20:52:53.082Z,25.93
2018-12-27T20:55:43.779Z,26.20
2018-12-27T20:58:34.205Z,25.30
2018-12-27T21:01:24.472Z,24.50
2018-12-27T21:04:15.029Z,25.50
2018-12-27T21:07:05.131Z,26.07
2018-12-27T21:09:55.468Z,26.37
2018-12-27T21:12:46.247Z,28.73
2018-12-27T21:15:36.371Z,25.83
2018-12-27T21:18:26.473Z,24.77
2018-12-27T21:21:16.523Z,25.33
2018-12-27T21:24:07.307Z,25.30
2018-12-27T21:26:57.718Z,25.30
2018-12-27T21:29:48.182Z,25.77
2018-12-27T21:32:38.375Z,24.93
2018-12-27T21:35:28.563Z,25.17
2018-12-27T21:38:21.540Z,24.03
2018-12-27T21:41:10.382Z,24.70
2018-12-27T21:44:01.258Z,24.50
2018-12-27T21:46:51.367Z,25.23
2018-12-27T21:49:41.673Z,26.13
2018-12-27T21:52:32.135Z,26.60
2018-12-27T21:55:22.221Z,25.00
2018-12-27T21:58:12.471Z,24.97
2018-12-27T22:01:02.942Z,27.27
2018-12-27T22:03:53.574Z,25.83
2018-12-27T22:06:44.163Z,26.07
2018-12-27T22:09:34.481Z,27.47
2018-12-27T22:12:24.542Z,27.17
2018-12-27T22:15:14.607Z,26.80
2018-12-27T22:18:05.038Z,28.07
2018-12-27T22:20:55.286Z,26.10
2018-12-27T22:23:45.294Z,27.93
2018-12-27T22:26:35.355Z,28.13
2018-12-27T22:29:25.754Z,26.17
2018-12-27T22:32:16.344Z,27.13
2018-12-27T22:35:06.444Z,27.47
2018-12-27T22:37:56.872Z,24.47
2018-12-27T22:40:47.003Z,25.70
2018-12-27T22:43:37.428Z,27.63
2018-12-27T22:46:27.795Z,27.13
2018-12-27T22:49:18.167Z,25.73
2018-12-27T22:52:08.555Z,26.07
2018-12-27T22:54:58.895Z,26.60
2018-12-27T22:57:49.083Z,25.97
2018-12-27T23:00:40.391Z,26.30
2018-12-27T23:03:30.795Z,25.53
2018-12-27T23:06:21.125Z,28.30
2018-12-27T23:09:11.397Z,28.23
2018-12-27T23:12:01.850Z,28.23
2018-12-27T23:14:52.522Z,27.57
2018-12-27T23:17:42.947Z,27.73
2018-12-27T23:20:33.311Z,28.97
2018-12-27T23:23:23.857Z,26.70
2018-12-27T23:26:14.798Z,27.13
2018-12-27T23:29:05.255Z,25.40
2018-12-27T23:31:55.730Z,27.20
2018-12-27T23:34:46.395Z,26.00
2018-12-27T23:37:37.110Z,25.60
2018-12-27T23:40:27.194Z,27.03
2018-12-27T23:43:17.507Z,25.53
2018-12-27T23:46:08.426Z,26.77
2018-12-27T23:48:58.542Z,25.90
2018-12-27T23:51:49.199Z,25.20
2018-12-27T23:54:39.789Z,26.13
2018-12-27T23:57:30.191Z,26.93
